Time;durP1;ratioP1;P1;durP2;ratioP2;P2;SDS_P1;SDS_P2;PMS_P1;PMS_P2;Temp;Humidity;BMP_temperature;BMP_pressure;BME280_temperature;BME280_humidity;BME280_pressure;Samples;Min_cycle;Max_cycle;Signal;HPM_P1;HPM_P2
2021/09/11 00:01:51;;;;;;;62.60;34.57;;;;;;;16.94;100.00;101011.00;7395547;19;20486;-58
2021/09/11 00:04:21;;;;;;;68.93;34.23;;;;;;;16.92;100.00;101005.75;7397826;19;20402;-62
2021/09/11 00:06:50;;;;;;;72.03;35.73;;;;;;;16.93;100.00;101004.94;7394562;19;20483;-59
2021/09/11 00:09:22;;;;;;;61.23;31.90;;;;;;;16.88;100.00;100997.00;7399100;19;20396;-53
2021/09/11 00:11:52;;;;;;;51.83;29.70;;;;;;;16.84;100.00;100999.53;7395031;19;20896;-55
2021/09/11 00:14:21;;;;;;;48.87;27.47;;;;;;;16.80;100.00;100996.00;7398636;19;20402;-61
2021/09/11 00:16:51;;;;;;;48.80;26.87;;;;;;;16.80;100.00;101003.81;7394665;19;20937;-57
2021/09/11 00:19:20;;;;;;;45.77;25.23;;;;;;;16.83;100.00;100993.44;7398936;19;20457;-59
2021/09/11 00:21:50;;;;;;;44.63;24.30;;;;;;;16.86;100.00;101003.94;7395042;19;20423;-51
2021/09/11 00:24:19;;;;;;;41.23;24.57;;;;;;;16.84;100.00;100997.81;7397527;19;20391;-58
2021/09/11 00:26:52;;;;;;;41.03;24.43;;;;;;;16.86;100.00;100998.72;7394337;19;20488;-59
2021/09/11 00:29:21;;;;;;;43.00;21.90;;;;;;;16.83;100.00;101003.00;7398530;19;20396;-56
2021/09/11 00:31:50;;;;;;;38.00;20.90;;;;;;;16.80;100.00;101001.19;7394361;19;20406;-60
2021/09/11 00:34:20;;;;;;;35.07;21.57;;;;;;;16.84;100.00;100999.53;7397891;19;20850;-58
2021/09/11 00:36:50;;;;;;;34.10;20.30;;;;;;;16.86;100.00;101003.94;7394171;19;20432;-58
2021/09/11 00:39:20;;;;;;;40.33;21.53;;;;;;;16.86;100.00;101000.44;7398231;19;20391;-61
2021/09/11 00:41:53;;;;;;;30.10;18.70;;;;;;;16.81;100.00;100994.28;7394773;19;20501;-60
2021/09/11 00:44:22;;;;;;;32.83;20.17;;;;;;;16.85;100.00;100996.06;7396738;19;20391;-54
2021/09/11 00:46:52;;;;;;;34.43;19.80;;;;;;;16.90;100.00;100993.56;7393516;19;20409;-60
2021/09/11 00:49:21;;;;;;;33.13;18.37;;;;;;;16.93;100.00;100994.53;7402393;19;20398;-61
2021/09/11 00:51:51;;;;;;;31.07;19.10;;;;;;;16.90;100.00;100988.34;7393429;19;20418;-59
2021/09/11 00:54:20;;;;;;;33.20;19.23;;;;;;;16.90;100.00;100990.94;7397779;19;20388;-56
2021/09/11 00:56:53;;;;;;;32.53;19.90;;;;;;;16.92;100.00;100990.13;7393820;19;20696;-56
2021/09/11 00:59:22;;;;;;;27.67;16.93;;;;;;;16.90;100.00;100994.44;7397641;19;20439;-54
2021/09/11 01:01:51;;;;;;;29.70;17.50;;;;;;;16.87;100.00;100987.44;7393518;19;20509;-61
2021/09/11 01:04:21;;;;;;;28.57;18.30;;;;;;;16.91;100.00;100984.91;7396107;19;20389;-60
2021/09/11 01:06:51;;;;;;;28.53;18.10;;;;;;;16.90;100.00;100983.13;7390321;19;20426;-58
2021/09/11 01:09:21;;;;;;;28.40;18.17;;;;;;;16.93;100.00;100980.59;7397147;19;20537;-61
2021/09/11 01:11:53;;;;;;;36.63;18.67;;;;;;;16.85;100.00;100981.34;7392142;19;20415;-62
2021/09/11 01:14:23;;;;;;;29.00;17.67;;;;;;;16.84;100.00;100986.50;7405116;19;20399;-59
2021/09/11 01:16:52;;;;;;;31.87;16.97;;;;;;;16.83;100.00;100989.97;7397120;19;20419;-59
2021/09/11 01:19:22;;;;;;;29.23;18.17;;;;;;;16.79;100.00;100995.94;7404594;19;20392;-58
2021/09/11 01:21:51;;;;;;;28.60;18.00;;;;;;;16.76;100.00;101001.97;7397349;19;20439;-55
2021/09/11 01:24:23;;;;;;;30.40;18.43;;;;;;;16.79;100.00;100991.63;7402998;19;20383;-52
2021/09/11 01:26:53;;;;;;;29.93;18.57;;;;;;;16.74;100.00;100996.75;7396231;19;20475;-60
2021/09/11 01:29:22;;;;;;;37.00;18.00;;;;;;;16.70;100.00;101005.34;7404166;19;20386;-56
2021/09/11 01:31:52;;;;;;;30.60;18.20;;;;;;;16.79;100.00;101001.16;7396794;19;20434;-57
2021/09/11 01:34:21;;;;;;;29.00;18.73;;;;;;;16.73;100.00;101007.13;7404363;19;20391;-57
2021/09/11 01:36:51;;;;;;;30.87;18.03;;;;;;;16.79;100.00;101007.25;7396578;19;20421;-58
2021/09/11 01:39:23;;;;;;;29.60;18.10;;;;;;;16.76;100.00;101006.31;7403874;19;20400;-54
2021/09/11 01:41:52;;;;;;;34.53;19.83;;;;;;;16.72;100.00;101006.25;7396502;19;20442;-58
2021/09/11 01:44:22;;;;;;;31.93;19.43;;;;;;;16.71;100.00;101003.59;7402548;19;20451;-52
2021/09/11 01:46:51;;;;;;;34.30;20.17;;;;;;;16.67;100.00;101007.88;7394367;19;20947;-57
2021/09/11 01:49:21;;;;;;;37.77;19.57;;;;;;;16.68;100.00;101013.97;7403744;19;20422;-56
2021/09/11 01:51:50;;;;;;;35.80;19.50;;;;;;;16.71;100.00;101019.25;7396651;19;20442;-52
2021/09/11 01:54:22;;;;;;;30.70;18.50;;;;;;;16.64;100.00;101018.25;7403624;19;20403;-56
2021/09/11 01:56:52;;;;;;;33.57;18.17;;;;;;;16.67;100.00;101017.44;7395768;19;20411;-61
2021/09/11 01:59:21;;;;;;;36.10;21.10;;;;;;;16.60;100.00;101014.69;7403280;19;20395;-54
2021/09/11 02:01:51;;;;;;;35.70;20.50;;;;;;;16.67;100.00;101017.44;7394975;19;20526;-60
2021/09/11 02:04:20;;;;;;;38.60;21.67;;;;;;;16.65;100.00;101019.09;7402350;19;20396;-56
2021/09/11 02:06:50;;;;;;;43.77;21.87;;;;;;;16.64;100.00;101013.03;7398710;19;20427;-55
2021/09/11 02:09:19;;;;;;;40.27;21.53;;;;;;;16.67;100.00;101018.28;7402909;19;20396;-54
2021/09/11 02:11:51;;;;;;;40.83;21.87;;;;;;;16.67;100.00;101017.44;7399028;19;20485;-57
2021/09/11 02:14:21;;;;;;;33.87;20.90;;;;;;;16.78;100.00;101017.66;7403067;19;20380;-57
2021/09/11 02:16:50;;;;;;;38.50;21.10;;;;;;;16.70;100.00;101017.47;7397045;19;20423;-56
2021/09/11 02:19:20;;;;;;;45.87;23.40;;;;;;;16.73;100.00;101018.41;7401526;19;20387;-62
2021/09/11 02:21:49;;;;;;;48.00;25.80;;;;;;;16.66;100.00;101016.53;7398315;19;20411;-57
2021/09/11 02:24:19;;;;;;;45.30;23.87;;;;;;;16.70;100.00;101013.16;7401030;19;20390;-59
2021/09/11 02:26:48;;;;;;;48.50;24.70;;;;;;;16.79;100.00;101009.88;7398206;19;20424;-56
2021/09/11 02:29:20;;;;;;;45.17;23.50;;;;;;;16.79;100.00;101015.09;7402197;19;20462;-58
2021/09/11 02:31:50;;;;;;;44.63;22.57;;;;;;;16.75;100.00;101018.47;7398392;19;20738;-62
2021/09/11 02:34:19;;;;;;;43.47;23.87;;;;;;;16.80;100.00;101019.44;7402410;19;20459;-59
2021/09/11 02:36:49;;;;;;;44.47;23.70;;;;;;;16.74;100.00;101011.50;7397680;19;20494;-54
2021/09/11 02:39:18;;;;;;;42.23;23.87;;;;;;;16.78;100.00;101021.16;7402023;19;20669;-55
2021/09/11 02:41:48;;;;;;;45.43;23.47;;;;;;;16.81;100.00;101022.94;7398255;19;20479;-57
2021/09/11 02:44:20;;;;;;;44.83;24.40;;;;;;;16.80;100.00;101018.53;7401283;19;20918;-56
2021/09/11 02:46:49;;;;;;;42.77;23.60;;;;;;;16.76;100.00;101017.59;7397659;19;20408;-59
2021/09/11 02:49:19;;;;;;;53.23;25.40;;;;;;;16.81;100.00;101020.34;7401434;19;20392;-58
2021/09/11 02:51:48;;;;;;;49.07;24.90;;;;;;;16.92;100.00;101016.19;7397861;19;20428;-59
2021/09/11 02:54:18;;;;;;;48.93;24.87;;;;;;;16.81;100.00;101010.78;7402956;19;20916;-60
2021/09/11 02:56:47;;;;;;;48.03;24.13;;;;;;;16.81;100.00;101013.38;7397103;19;20435;-55
2021/09/11 02:59:19;;;;;;;54.80;28.13;;;;;;;16.83;100.00;101019.50;7401469;19;20471;-59
2021/09/11 03:01:49;;;;;;;48.67;25.40;;;;;;;16.79;100.00;101012.47;7396953;19;20420;-59
2021/09/11 03:04:19;;;;;;;63.27;32.13;;;;;;;16.83;100.00;101019.50;7400994;19;20404;-62
2021/09/11 03:06:48;;;;;;;54.83;28.27;;;;;;;16.71;100.00;101029.66;7396892;19;20441;-57
2021/09/11 03:09:18;;;;;;;56.47;27.47;;;;;;;16.63;100.00;101026.03;7400884;19;20399;-60
2021/09/11 03:11:47;;;;;;;59.13;28.20;;;;;;;16.62;100.00;101027.75;7396424;19;20407;-58
2021/09/11 03:14:19;;;;;;;65.10;28.60;;;;;;;16.55;100.00;101034.56;7400914;19;20920;-56
2021/09/11 03:16:49;;;;;;;67.13;31.53;;;;;;;16.56;100.00;101038.06;7396407;19;20427;-60
2021/09/11 03:19:18;;;;;;;77.70;30.83;;;;;;;16.61;100.00;101033.78;7400612;19;20385;-54
2021/09/11 03:21:48;;;;;;;61.70;29.77;;;;;;;16.70;100.00;101033.13;7396586;19;20483;-60
2021/09/11 03:24:17;;;;;;;76.50;34.00;;;;;;;16.68;100.00;101033.09;7400473;19;20389;-58
2021/09/11 03:26:47;;;;;;;70.00;33.10;;;;;;;16.72;100.00;101039.25;7396412;19;20412;-60
2021/09/11 03:29:19;;;;;;;73.07;33.50;;;;;;;16.78;100.00;101038.50;7399492;19;20384;-58
2021/09/11 03:31:48;;;;;;;72.13;32.67;;;;;;;16.75;100.00;101031.50;7396314;19;20877;-56
2021/09/11 03:34:18;;;;;;;75.80;33.33;;;;;;;16.80;100.00;101040.28;7398273;19;20850;-55
2021/09/11 03:36:47;;;;;;;78.63;32.77;;;;;;;16.68;100.00;101032.22;7395784;19;20715;-57
2021/09/11 03:39:17;;;;;;;82.63;37.07;;;;;;;16.72;100.00;101031.44;7399947;19;20392;-56
2021/09/11 03:41:46;;;;;;;80.70;34.80;;;;;;;16.75;100.00;101031.50;7385624;19;20877;-61
2021/09/11 03:44:16;;;;;;;87.80;34.30;;;;;;;16.81;100.00;101030.75;7399996;19;20396;-57
2021/09/11 03:46:48;;;;;;;88.50;35.80;;;;;;;16.81;100.00;101035.97;7395241;19;20395;-61
2021/09/11 03:49:17;;;;;;;84.87;36.17;;;;;;;16.88;100.00;101027.41;7398943;19;20468;-59
2021/09/11 03:51:47;;;;;;;83.60;37.40;;;;;;;16.94;100.00;101026.66;7395849;19;20407;-60
2021/09/11 03:54:16;;;;;;;89.67;35.73;;;;;;;16.95;100.00;101031.91;7400023;19;20392;-60
2021/09/11 03:56:45;;;;;;;81.37;36.73;;;;;;;16.86;100.00;101026.50;7395324;19;20419;-58
2021/09/11 03:59:15;;;;;;;85.73;37.47;;;;;;;16.89;100.00;101029.16;7399682;19;20850;-58
2021/09/11 04:01:44;;;;;;;81.63;38.30;;;;;;;16.86;100.00;101029.97;7395005;19;20415;-56
2021/09/11 04:04:17;;;;;;;76.30;35.33;;;;;;;16.90;100.00;101030.94;7399691;19;20651;-56
2021/09/11 04:06:46;;;;;;;89.00;39.50;;;;;;;17.01;100.00;101029.41;7390177;19;20582;-58
2021/09/11 04:09:16;;;;;;;84.73;34.77;;;;;;;17.02;100.00;101030.31;7399337;19;20398;-59
2021/09/11 04:11:45;;;;;;;81.27;34.63;;;;;;;16.88;100.00;101033.50;7391457;19;20495;-60
2021/09/11 04:14:15;;;;;;;72.23;34.00;;;;;;;16.98;100.00;101028.47;7399116;19;20699;-59
2021/09/11 04:16:44;;;;;;;82.10;35.20;;;;;;;17.07;100.00;101027.81;7391620;19;20411;-58
2021/09/11 04:19:16;;;;;;;79.30;35.63;;;;;;;17.11;100.00;101022.69;7399018;19;20443;-50
2021/09/11 04:21:46;;;;;;;71.57;35.00;;;;;;;17.09;100.00;101021.78;7391694;19;20407;-59
2021/09/11 04:24:15;;;;;;;79.53;35.70;;;;;;;17.17;100.00;101016.69;7398145;19;20464;-57
2021/09/11 04:26:46;;;;;;;71.27;36.00;;;;;;;17.10;100.00;101017.44;7389725;19;20448;-53
2021/09/11 04:29:15;;;;;;;74.97;33.30;;;;;;;17.10;100.00;101020.94;7398747;19;20650;-53
2021/09/11 04:31:45;;;;;;;66.70;31.73;;;;;;;17.09;100.00;101020.91;7386360;19;20487;-59
2021/09/11 04:34:17;;;;;;;79.00;33.50;;;;;;;17.08;100.00;101020.00;7398952;19;20455;-56
2021/09/11 04:36:46;;;;;;;86.27;36.83;;;;;;;17.10;100.00;101030.47;7386029;19;20403;-53
2021/09/11 04:39:16;;;;;;;69.93;32.80;;;;;;;16.98;100.00;101025.88;7398506;19;20388;-58
2021/09/11 04:41:46;;;;;;;74.37;34.03;;;;;;;17.10;100.00;101033.06;7391405;19;20889;-58
2021/09/11 04:44:15;;;;;;;95.37;35.07;;;;;;;17.13;100.00;101034.00;7397847;19;20405;-58
2021/09/11 04:46:45;;;;;;;83.13;33.80;;;;;;;16.99;100.00;101030.22;7394647;19;20427;-53
2021/09/11 04:49:17;;;;;;;79.70;34.03;;;;;;;16.94;100.00;101022.31;7405614;19;20387;-55
2021/09/11 04:51:46;;;;;;;77.87;34.00;;;;;;;16.96;100.00;101025.84;7398268;19;20757;-53
2021/09/11 04:54:16;;;;;;;76.67;35.07;;;;;;;17.04;100.00;101017.31;7406036;19;20398;-53
2021/09/11 04:56:45;;;;;;;72.93;33.17;;;;;;;17.01;100.00;101025.91;7397844;19;20410;-59
2021/09/11 04:59:15;;;;;;;83.10;33.77;;;;;;;17.04;100.00;101028.63;7406974;19;20404;-57
2021/09/11 05:01:44;;;;;;;80.77;34.50;;;;;;;16.98;100.00;101024.13;7396948;19;20443;-60
2021/09/11 05:04:17;;;;;;;76.00;34.60;;;;;;;16.97;100.00;101026.72;7405988;19;20450;-56
2021/09/11 05:06:46;;;;;;;81.60;33.83;;;;;;;17.11;100.00;101024.41;7395284;19;20423;-55
2021/09/11 05:09:16;;;;;;;77.77;32.83;;;;;;;17.12;100.00;101024.44;7405072;19;20894;-60
2021/09/11 05:11:45;;;;;;;77.10;33.80;;;;;;;17.11;100.00;101020.06;7397625;19;20422;-60
2021/09/11 05:14:15;;;;;;;83.97;34.37;;;;;;;17.09;100.00;101021.78;7404862;19;20443;-54
2021/09/11 05:16:44;;;;;;;89.33;35.97;;;;;;;17.17;100.00;101019.28;7397132;19;20432;-57
2021/09/11 05:19:16;;;;;;;76.30;34.27;;;;;;;17.21;100.00;101020.22;7404799;19;20407;-60
2021/09/11 05:21:46;;;;;;;82.87;33.83;;;;;;;17.19;100.00;101025.44;7396716;19;20419;-55
2021/09/11 05:24:16;;;;;;;79.00;33.13;;;;;;;17.22;100.00;101032.44;7404973;19;20387;-58
2021/09/11 05:26:48;;;;;;;90.53;34.77;;;;;;;17.23;100.00;101028.97;7395991;19;20439;-58
2021/09/11 05:29:18;;;;;;;91.97;34.83;;;;;;;17.25;100.00;101024.66;7404450;19;20853;-60
2021/09/11 05:31:47;;;;;;;90.47;35.13;;;;;;;17.39;100.00;101028.38;7397052;19;20483;-57
2021/09/11 05:34:20;;;;;;;85.60;34.10;;;;;;;17.36;100.00;101025.75;7404593;19;20395;-62
2021/09/11 05:36:50;;;;;;;104.63;38.63;;;;;;;17.30;100.00;101025.63;7396547;19;20419;-58
2021/09/11 05:39:19;;;;;;;94.30;37.43;;;;;;;17.24;100.00;101030.72;7403213;19;20395;-61
2021/09/11 05:41:49;;;;;;;105.10;39.60;;;;;;;17.23;100.00;101039.41;7396521;19;20419;-56
2021/09/11 05:44:18;;;;;;;100.80;41.40;;;;;;;17.29;100.00;101034.31;7404223;19;20396;-57
2021/09/11 05:46:47;;;;;;;111.80;40.27;;;;;;;17.20;100.00;101039.34;7395624;19;20423;-55
2021/09/11 05:49:21;;;;;;;99.37;38.93;;;;;;;17.18;100.00;101035.84;7403841;19;20396;-56
2021/09/11 05:51:50;;;;;;;103.53;44.03;;;;;;;17.41;100.00;101036.25;7396209;19;20421;-62
2021/09/11 05:54:19;;;;;;;102.10;39.00;;;;;;;17.32;100.00;101033.50;7403950;19;20462;-55
2021/09/11 05:56:49;;;;;;;105.77;40.80;;;;;;;17.30;100.00;101035.16;7394862;19;20427;-56
2021/09/11 05:59:18;;;;;;;101.73;39.00;;;;;;;17.34;100.00;101035.25;7401497;19;20380;-58
2021/09/11 06:01:48;;;;;;;94.73;38.33;;;;;;;17.33;100.00;101040.47;7396001;19;20486;-61
2021/09/11 06:04:20;;;;;;;98.50;38.17;;;;;;;17.36;100.00;101041.38;7403414;19;20404;-58
2021/09/11 06:06:50;;;;;;;86.33;37.07;;;;;;;17.33;100.00;101043.94;7395184;19;20696;-61
2021/09/11 06:09:19;;;;;;;89.47;35.60;;;;;;;17.30;100.00;101041.28;7403117;19;20443;-59
2021/09/11 06:11:49;;;;;;;89.50;37.90;;;;;;;17.28;100.00;101049.06;7395954;19;20491;-60
2021/09/11 06:14:18;;;;;;;94.93;37.37;;;;;;;17.21;100.00;101054.13;7402918;19;20702;-56
2021/09/11 06:16:47;;;;;;;93.47;37.37;;;;;;;17.31;100.00;101061.28;7394104;19;20415;-61
2021/09/11 06:19:17;;;;;;;94.60;38.57;;;;;;;17.30;100.00;101050.81;7402866;19;20400;-60
2021/09/11 06:21:49;;;;;;;94.87;37.03;;;;;;;17.35;100.00;101052.69;7395416;19;20411;-56
2021/09/11 06:24:18;;;;;;;94.17;39.93;;;;;;;17.36;100.00;101050.94;7403199;19;20451;-62
2021/09/11 06:26:48;;;;;;;88.83;38.23;;;;;;;17.44;100.00;101049.34;7394820;19;20504;-55
2021/09/11 06:29:17;;;;;;;99.47;39.20;;;;;;;17.48;100.00;101051.16;7402413;19;20463;-62
2021/09/11 06:31:47;;;;;;;98.83;39.67;;;;;;;17.30;100.00;101054.31;7384145;19;20762;-61
2021/09/11 06:34:19;;;;;;;96.40;40.40;;;;;;;17.48;100.00;101055.50;7403071;19;20403;-57
2021/09/11 06:36:51;;;;;;;106.50;41.10;;;;;;;17.43;100.00;101057.16;7373361;19;20491;-58
2021/09/11 06:39:21;;;;;;;101.80;39.87;;;;;;;17.54;100.00;101053.00;7404543;19;20400;-61
2021/09/11 06:41:50;;;;;;;104.13;41.00;;;;;;;17.54;100.00;101047.78;7373130;19;20474;-59
2021/09/11 06:44:20;;;;;;;120.00;41.37;;;;;;;17.41;100.00;101044.97;7404422;19;21326;-62
2021/09/11 06:46:49;;;;;;;121.60;41.33;;;;;;;17.43;100.00;101051.94;7394403;19;20743;-57
2021/09/11 06:49:19;;;;;;;113.53;45.33;;;;;;;17.43;100.00;101054.53;7401467;19;20468;-61
2021/09/11 06:51:51;;;;;;;106.20;39.20;;;;;;;17.57;100.00;101055.66;7394463;19;20786;-61
2021/09/11 06:54:20;;;;;;;109.80;43.27;;;;;;;17.59;100.00;101051.34;7402866;19;20414;-60
2021/09/11 06:56:50;;;;;;;110.83;43.47;;;;;;;17.64;100.00;101046.22;7393890;19;20503;-60
2021/09/11 06:59:19;;;;;;;104.13;43.17;;;;;;;17.73;100.00;101048.09;7400938;19;20891;-56
2021/09/11 07:01:48;;;;;;;102.33;40.60;;;;;;;17.76;100.00;101049.03;7397391;19;20407;-58
2021/09/11 07:04:20;;;;;;;88.13;37.17;;;;;;;17.79;100.00;101048.22;7401066;19;20417;-60
2021/09/11 07:06:52;;;;;;;133.50;55.63;;;;;;;17.91;100.00;101050.13;7395871;19;20918;-61
2021/09/11 07:09:22;;;;;;;97.20;38.07;;;;;;;18.02;100.00;101043.34;7399650;19;20465;-62
2021/09/11 07:11:51;;;;;;;99.23;39.03;;;;;;;18.12;100.00;101046.13;7397216;19;20417;-60
2021/09/11 07:14:21;;;;;;;91.40;37.40;;;;;;;18.09;100.00;101039.13;7400621;19;20459;-60
2021/09/11 07:16:50;;;;;;;100.80;39.37;;;;;;;18.26;100.00;101048.94;7396667;19;20436;-58
2021/09/11 07:19:19;;;;;;;81.63;35.03;;;;;;;18.26;100.00;101035.88;7400321;19;20702;-62
2021/09/11 07:21:51;;;;;;;84.00;38.10;;;;;;;18.20;100.00;101042.78;7396662;19;20427;-60
2021/09/11 07:24:21;;;;;;;82.67;35.50;;;;;;;18.32;100.00;101046.44;7401447;19;20491;-60
2021/09/11 07:26:51;;;;;;;74.10;33.23;;;;;;;18.24;100.00;101040.22;7395696;19;20431;-62
2021/09/11 07:29:20;;;;;;;85.53;35.93;;;;;;;18.31;100.00;101047.28;7399597;19;20379;-62
2021/09/11 07:31:50;;;;;;;70.67;34.43;;;;;;;18.26;100.00;101041.13;7396249;19;20425;-58
2021/09/11 07:34:19;;;;;;;83.30;39.50;;;;;;;18.33;100.00;101042.94;7400181;19;20384;-60
2021/09/11 07:36:51;;;;;;;73.73;35.67;;;;;;;18.36;100.00;101048.22;7395906;19;20449;-61
2021/09/11 07:39:21;;;;;;;87.10;37.83;;;;;;;18.23;100.00;101052.38;7399690;19;20440;-54
2021/09/11 07:41:50;;;;;;;79.43;35.43;;;;;;;18.27;100.00;101054.19;7395971;19;20425;-59
2021/09/11 07:44:20;;;;;;;75.47;35.37;;;;;;;18.31;100.00;101050.75;7398968;19;20470;-58
2021/09/11 07:46:49;;;;;;;73.97;36.80;;;;;;;18.26;100.00;101047.22;7397696;19;20419;-58
2021/09/11 07:49:19;;;;;;;77.90;34.07;;;;;;;18.24;100.00;101055.88;7399533;19;20392;-58
2021/09/11 07:51:49;;;;;;;81.93;37.97;;;;;;;18.31;100.00;101055.13;7395763;19;20419;-59
2021/09/11 07:54:23;;;;;;;75.43;34.40;;;;;;;18.36;100.00;101061.28;7399551;19;20433;-60
2021/09/11 07:56:52;;;;;;;82.90;42.17;;;;;;;18.30;100.00;101063.81;7394619;19;20499;-56
2021/09/11 07:59:21;;;;;;;73.70;34.27;;;;;;;18.24;100.00;101061.97;7399133;19;20391;-57
2021/09/11 08:01:51;;;;;;;82.30;40.20;;;;;;;18.17;100.00;101063.63;7395053;19;20454;-58
2021/09/11 08:04:21;;;;;;;80.50;40.20;;;;;;;18.35;100.00;101059.50;7398224;19;20388;-56
2021/09/11 08:06:50;;;;;;;81.40;37.67;;;;;;;18.35;100.00;101075.19;7395045;19;20411;-56
2021/09/11 08:09:22;;;;;;;74.23;35.07;;;;;;;18.26;100.00;101070.72;7398718;19;20408;-61
2021/09/11 08:11:52;;;;;;;79.63;35.50;;;;;;;18.43;100.00;101067.47;7373326;19;20449;-63
2021/09/11 08:14:21;;;;;;;71.50;33.40;;;;;;;18.40;100.00;101070.91;7398126;19;20838;-59
2021/09/11 08:16:51;;;;;;;75.93;39.30;;;;;;;18.54;100.00;101068.50;7375074;19;20418;-60
2021/09/11 08:19:20;;;;;;;80.33;38.40;;;;;;;18.42;100.00;101065.72;7398699;19;20410;-62
2021/09/11 08:21:50;;;;;;;81.67;37.50;;;;;;;18.43;100.00;101062.25;7406172;19;20505;-53
2021/09/11 08:24:19;;;;;;;66.40;31.83;;;;;;;18.51;100.00;101067.59;7414303;19;20679;-55
2021/09/11 08:26:51;;;;;;;88.17;43.17;;;;;;;18.49;100.00;101065.84;7408823;19;20696;-60
2021/09/11 08:29:21;;;;;;;59.37;30.83;;;;;;;18.52;100.00;101071.94;7412893;19;20391;-61
2021/09/11 08:31:50;;;;;;;70.83;32.33;;;;;;;18.57;100.00;101068.53;7408724;19;20469;-59
2021/09/11 08:34:20;;;;;;;70.97;34.80;;;;;;;18.60;100.00;101073.81;7412446;19;20392;-60
2021/09/11 08:36:49;;;;;;;70.90;34.97;;;;;;;18.40;100.00;101076.13;7408066;19;20695;-59
2021/09/11 08:39:26;;;;;;;69.87;33.97;;;;;;;18.36;100.00;101079.56;7411691;19;20700;-54
2021/09/11 08:42:00;;;;;;;74.23;35.53;;;;;;;18.29;100.00;101077.69;7408138;19;20449;-54
2021/09/11 08:44:31;;;;;;;72.23;36.07;;;;;;;18.35;100.00;101078.69;7412276;19;20416;-58
2021/09/11 08:47:00;;;;;;;68.83;33.13;;;;;;;18.41;100.00;101077.03;7397095;19;20523;-59
2021/09/11 08:49:30;;;;;;;74.40;35.57;;;;;;;18.45;100.00;101084.91;7412120;19;20454;-56
2021/09/11 08:52:00;;;;;;;69.80;34.67;;;;;;;18.53;100.00;101086.75;7378769;19;20730;-52
2021/09/11 08:54:29;;;;;;;83.37;38.57;;;;;;;18.42;100.00;101097.06;7411611;19;20391;-58
2021/09/11 08:57:20;;;;;;;78.30;40.40;;;;;;;18.41;100.00;101090.09;7395007;19;20418;-59
2021/09/11 08:59:49;;;;;;;72.53;38.03;;;;;;;18.42;100.00;101097.94;7411685;19;20447;-62
2021/09/11 09:02:20;;;;;;;62.90;31.30;;;;;;;18.51;100.00;101096.31;7408514;19;20423;-59
2021/09/11 09:04:51;;;;;;;68.23;33.87;;;;;;;18.48;100.00;101100.66;7412116;19;20416;-60
2021/09/11 09:07:32;;;;;;;78.90;34.97;;;;;;;18.30;100.00;101093.41;7406844;19;20471;-55
2021/09/11 09:10:08;;;;;;;65.53;34.97;;;;;;;18.29;100.00;101098.59;7409447;19;20367;-58
2021/09/11 09:12:42;;;;;;;87.57;40.67;;;;;;;18.18;100.00;101101.94;7382241;19;20908;-58
2021/09/11 09:15:13;;;;;;;88.77;37.23;;;;;;;18.27;100.00;101105.53;7410762;19;20386;-59
2021/09/11 09:17:45;;;;;;;62.93;32.70;;;;;;;18.45;100.00;101094.47;7407126;19;20433;-58
2021/09/11 09:20:18;;;;;;;81.83;36.83;;;;;;;18.37;100.00;101091.78;7411446;19;20393;-57
2021/09/11 09:22:50;;;;;;;74.90;32.50;;;;;;;18.48;100.00;101095.44;7406472;19;20498;-59
2021/09/11 09:25:25;;;;;;;60.00;30.77;;;;;;;18.47;100.00;101098.00;7410921;19;20400;-54
2021/09/11 09:27:59;;;;;;;67.40;31.73;;;;;;;18.38;100.00;101097.84;7404589;19;20501;-61
2021/09/11 09:30:38;;;;;;;79.60;37.37;;;;;;;18.36;100.00;101100.47;7410572;19;20403;-59
2021/09/11 09:33:08;;;;;;;78.40;38.10;;;;;;;18.37;100.00;101102.22;7397336;19;20948;-55
2021/09/11 09:35:37;;;;;;;85.40;37.40;;;;;;;18.46;100.00;101097.13;7403141;19;20396;-55
2021/09/11 09:38:09;;;;;;;71.40;32.63;;;;;;;18.55;100.00;101096.38;7400326;19;20425;-61
2021/09/11 09:40:45;;;;;;;74.20;35.40;;;;;;;18.56;100.00;101097.25;7404102;19;20398;-57
2021/09/11 09:43:32;;;;;;;70.60;32.60;;;;;;;18.56;100.00;101094.66;7401407;19;20885;-58
2021/09/11 09:46:06;;;;;;;72.87;38.20;;;;;;;18.65;100.00;101094.75;7401833;19;20459;-55
2021/09/11 09:48:36;;;;;;;71.00;35.40;;;;;;;18.66;100.00;101091.28;7402251;19;20408;-60
2021/09/11 09:51:07;;;;;;;70.73;33.83;;;;;;;18.75;100.00;101094.03;7400094;19;20396;-57
2021/09/11 09:53:37;;;;;;;60.73;31.23;;;;;;;18.68;100.00;101086.09;7400928;19;20674;-56
2021/09/11 09:56:08;;;;;;;61.00;33.27;;;;;;;18.86;100.00;101086.34;7386198;19;20898;-56
2021/09/11 09:58:41;;;;;;;59.87;31.17;;;;;;;19.05;100.00;101083.09;7403596;19;20472;-57
2021/09/11 10:01:10;;;;;;;62.57;32.37;;;;;;;18.97;100.00;101081.22;7372265;19;20379;-59
2021/09/11 10:03:40;;;;;;;61.93;31.30;;;;;;;19.10;100.00;101071.84;7398719;19;20436;-59
2021/09/11 10:06:15;;;;;;;59.90;32.10;;;;;;;19.04;100.00;101071.78;7387067;19;20499;-58
2021/09/11 10:08:48;;;;;;;48.10;26.90;;;;;;;19.08;100.00;101070.06;7401088;19;20661;-58
2021/09/11 10:11:18;;;;;;;53.33;29.17;;;;;;;19.08;100.00;101070.06;7396665;19;20423;-60
2021/09/11 10:14:02;;;;;;;54.07;30.23;;;;;;;19.16;100.00;101069.28;7399910;19;20493;-61
2021/09/11 10:16:33;;;;;;;65.30;34.93;;;;;;;19.07;100.00;101057.84;7398160;19;20876;-57
2021/09/11 10:19:17;;;;;;;106.23;54.53;;;;;;;19.12;100.00;101064.03;7402831;19;20443;-60
2021/09/11 10:21:47;;;;;;;60.00;32.97;;;;;;;19.27;100.00;101055.44;7398253;19;20419;-60
2021/09/11 10:24:34;;;;;;;55.53;31.60;;;;;;;19.38;100.00;101053.81;7402464;19;20376;-56
2021/09/11 10:27:08;;;;;;;51.47;28.80;;;;;;;19.53;100.00;101052.22;7397504;19;20499;-57
2021/09/11 10:30:00;;;;;;;54.73;29.70;;;;;;;19.47;100.00;101046.94;7400413;19;20664;-59
2021/09/11 10:32:39;;;;;;;48.03;25.63;;;;;;;19.50;100.00;101039.09;7374950;19;20437;-60
2021/09/11 10:35:11;;;;;;;41.67;24.07;;;;;;;19.64;100.00;101034.84;7401668;19;20672;-58
2021/09/11 10:37:46;;;;;;;43.07;24.23;;;;;;;19.54;100.00;101028.66;7398647;19;20439;-61
2021/09/11 10:40:29;;;;;;;45.13;27.47;;;;;;;19.56;100.00;101029.59;7401774;19;20665;-58
2021/09/11 10:43:17;;;;;;;39.93;24.43;;;;;;;19.48;100.00;101040.84;7396557;19;20423;-59
2021/09/11 10:45:58;;;;;;;55.80;30.47;;;;;;;19.30;100.00;101038.03;7402440;19;20403;-57
2021/09/11 10:48:36;;;;;;;51.53;31.33;;;;;;;19.36;100.00;101031.13;7400758;19;20427;-57
2021/09/11 10:51:13;;;;;;;37.47;22.03;;;;;;;19.52;100.00;101026.91;7398300;19;20694;-58
2021/09/11 10:53:58;;;;;;;50.27;28.47;;;;;;;19.51;100.00;101026.03;7399650;19;20423;-57
2021/09/11 10:56:28;;;;;;;36.30;21.23;;;;;;;19.51;100.00;101022.53;7397647;19;20669;-56
2021/09/11 10:59:25;;;;;;;45.13;26.40;;;;;;;19.53;100.00;101026.94;7401152;19;20918;-58
2021/09/11 11:02:08;;;;;;;36.70;22.50;;;;;;;19.58;100.00;101028.72;7375012;19;20435;-60
2021/09/11 11:04:40;;;;;;;210.83;109.70;;;;;;;19.43;100.00;101036.44;7400784;19;20388;-61
2021/09/11 11:07:11;;;;;;;82.53;45.33;;;;;;;19.43;100.00;101035.53;7396124;19;20685;-60
2021/09/11 11:09:42;;;;;;;167.00;91.67;;;;;;;19.43;100.00;101035.53;7399627;19;20396;-62
2021/09/11 11:12:13;;;;;;;35.40;20.10;;;;;;;19.48;100.00;101041.69;7375073;19;20792;-61
2021/09/11 11:14:47;;;;;;;57.57;32.30;;;;;;;19.33;100.00;101037.19;7400351;19;20447;-62
2021/09/11 11:17:20;;;;;;;38.70;20.83;;;;;;;19.37;100.00;101040.72;7396679;19;20415;-62
2021/09/11 11:19:52;;;;;;;48.70;25.87;;;;;;;19.38;100.00;101032.88;7400478;19;20406;-61